Time;durP1;ratioP1;P1;durP2;ratioP2;P2;SDS_P1;SDS_P2;PMS_P1;PMS_P2;Temp;Humidity;BMP_temperature;BMP_pressure;BME280_temperature;BME280_humidity;BME280_pressure;Samples;Min_cycle;Max_cycle;Signal;HPM_P1;HPM_P2
2022/08/06 00:01:07;;;;;;;16.50;8.60;;;;;;;;;;3330423;42;20525;-56
2022/08/06 00:03:33;;;;;;;17.47;9.33;;;;;;;;;;3338054;42;20369;-55
2022/08/06 00:05:58;;;;;;;21.63;9.85;;;;;;;;;;3334027;42;20282;-54
2022/08/06 00:08:24;;;;;;;17.77;8.88;;;;;;;;;;3337714;42;20303;-57
2022/08/06 00:10:50;;;;;;;14.57;8.82;;;;;;;;;;3339700;42;20113;-53
2022/08/06 00:13:18;;;;;;;15.20;8.63;;;;;;;;;;3336209;42;20498;-55
2022/08/06 00:15:45;;;;;;;15.25;9.00;;;;;;;;;;3332978;42;20097;-55
2022/08/06 00:18:11;;;;;;;14.38;8.43;;;;;;;;;;3336227;42;20662;-55
2022/08/06 00:20:37;;;;;;;17.85;8.77;;;;;;;;;;3337260;42;20583;-56
2022/08/06 00:23:03;;;;;;;15.00;9.05;;;;;;;;;;3334411;42;20125;-54
2022/08/06 00:25:29;;;;;;;21.97;9.23;;;;;;;;;;3338881;42;20105;-56
2022/08/06 00:27:55;;;;;;;13.52;8.77;;;;;;;;;;3334292;42;20149;-54
2022/08/06 00:30:21;;;;;;;17.67;9.15;;;;;;;;;;3334175;42;20160;-57
2022/08/06 00:32:47;;;;;;;14.52;9.25;;;;;;;;;;3341877;42;20101;-57
2022/08/06 00:35:13;;;;;;;14.15;8.30;;;;;;;;;;3343694;42;20145;-54
2022/08/06 00:37:40;;;;;;;13.83;8.60;;;;;;;;;;3341023;42;20089;-53
2022/08/06 00:40:06;;;;;;;13.65;8.63;;;;;;;;;;3340308;42;20148;-55
2022/08/06 00:42:32;;;;;;;15.88;9.50;;;;;;;;;;3333596;42;20149;-56
2022/08/06 00:45:00;;;;;;;14.05;9.20;;;;;;;;;;3332943;42;20096;-56
2022/08/06 00:47:26;;;;;;;19.75;9.73;;;;;;;;;;3336277;42;20152;-58
2022/08/06 00:49:52;;;;;;;15.47;9.37;;;;;;;;;;3333636;42;20559;-54
2022/08/06 00:52:18;;;;;;;16.35;9.27;;;;;;;;;;3335608;42;20131;-55
2022/08/06 00:54:44;;;;;;;15.45;8.98;;;;;;;;;;3338662;42;20133;-56
2022/08/06 00:57:10;;;;;;;15.32;8.77;;;;;;;;;;3345672;42;20097;-55
2022/08/06 00:59:36;;;;;;;15.45;9.43;;;;;;;;;;3339580;42;20112;-54
2022/08/06 01:02:02;;;;;;;24.23;9.40;;;;;;;;;;3336554;42;20154;-54
2022/08/06 01:04:28;;;;;;;19.75;9.00;;;;;;;;;;3345479;42;20141;-53
2022/08/06 01:06:54;;;;;;;13.98;8.98;;;;;;;;;;3335105;42;20136;-55
2022/08/06 01:09:20;;;;;;;14.77;8.70;;;;;;;;;;3333986;42;20181;-55
2022/08/06 01:11:46;;;;;;;16.83;9.15;;;;;;;;;;3335309;42;20097;-55
2022/08/06 01:14:12;;;;;;;14.47;8.63;;;;;;;;;;3338876;42;20566;-55
2022/08/06 01:16:48;;;;;;;15.30;8.70;;;;;;;;;;3332038;42;20144;-55
2022/08/06 01:19:26;;;;;;;14.52;8.60;;;;;;;;;;3324139;42;20081;-56
2022/08/06 01:22:10;;;;;;;16.73;9.00;;;;;;;;;;3334371;42;20208;-57
2022/08/06 01:25:13;;;;;;;15.80;9.10;;;;;;;;;;3337854;42;20114;-53
2022/08/06 01:27:59;;;;;;;15.90;8.70;;;;;;;;;;3331892;42;20084;-56
2022/08/06 01:30:29;;;;;;;15.93;8.70;;;;;;;;;;3335134;42;20224;-56
2022/08/06 01:33:01;;;;;;;18.42;8.93;;;;;;;;;;3324492;42;20597;-55
2022/08/06 01:35:29;;;;;;;12.82;8.25;;;;;;;;;;3332539;42;20294;-57
2022/08/06 01:38:03;;;;;;;21.77;8.65;;;;;;;;;;3330699;42;20650;-57
2022/08/06 01:40:31;;;;;;;17.60;8.27;;;;;;;;;;3325807;42;20148;-53
2022/08/06 01:42:57;;;;;;;14.57;8.25;;;;;;;;;;3325405;42;20283;-56
2022/08/06 01:45:25;;;;;;;15.07;8.40;;;;;;;;;;3326193;42;20200;-53
2022/08/06 01:47:52;;;;;;;16.17;8.60;;;;;;;;;;3340145;42;20643;-55
2022/08/06 01:50:20;;;;;;;15.90;8.40;;;;;;;;;;3342424;42;20164;-57
2022/08/06 01:52:46;;;;;;;17.07;7.90;;;;;;;;;;3345108;42;20092;-53
2022/08/06 01:55:14;;;;;;;20.27;8.68;;;;;;;;;;3318341;42;20100;-54
2022/08/06 01:57:43;;;;;;;13.77;8.15;;;;;;;;;;3331211;42;20595;-55
2022/08/06 02:00:09;;;;;;;13.88;8.40;;;;;;;;;;3335023;42;20123;-55
2022/08/06 02:02:35;;;;;;;18.85;8.50;;;;;;;;;;3331105;42;20089;-54
2022/08/06 02:05:01;;;;;;;16.27;8.13;;;;;;;;;;3336670;42;20144;-55
2022/08/06 02:07:31;;;;;;;15.70;8.30;;;;;;;;;;3332132;42;20104;-54
2022/08/06 02:09:57;;;;;;;14.88;8.05;;;;;;;;;;3329863;42;20556;-56
2022/08/06 02:12:24;;;;;;;13.77;8.20;;;;;;;;;;3324900;42;20143;-53
2022/08/06 02:14:53;;;;;;;14.23;8.02;;;;;;;;;;3326918;42;20085;-56
2022/08/06 02:17:21;;;;;;;17.63;8.67;;;;;;;;;;3323539;42;20141;-55
2022/08/06 02:19:49;;;;;;;17.13;8.10;;;;;;;;;;3335171;42;20093;-55
2022/08/06 02:22:15;;;;;;;13.98;8.27;;;;;;;;;;3328477;42;20605;-55
2022/08/06 02:24:42;;;;;;;13.90;8.27;;;;;;;;;;3326429;42;20103;-56
2022/08/06 02:27:08;;;;;;;13.43;8.20;;;;;;;;;;3332232;42;20108;-55
2022/08/06 02:29:34;;;;;;;12.77;7.90;;;;;;;;;;3332187;42;20077;-55
2022/08/06 02:32:00;;;;;;;14.35;8.00;;;;;;;;;;3333008;42;20085;-56
2022/08/06 02:34:26;;;;;;;12.10;7.97;;;;;;;;;;3336730;42;20112;-57
2022/08/06 02:36:57;;;;;;;13.52;7.80;;;;;;;;;;3338184;42;20089;-57
2022/08/06 02:39:29;;;;;;;14.38;7.72;;;;;;;;;;3330506;42;20191;-59
2022/08/06 02:42:14;;;;;;;14.20;7.90;;;;;;;;;;3332138;42;20100;-56
2022/08/06 02:45:05;;;;;;;12.07;7.68;;;;;;;;;;3340421;42;20088;-58
2022/08/06 02:47:54;;;;;;;17.63;8.32;;;;;;;;;;3333212;42;20085;-57
2022/08/06 02:50:22;;;;;;;16.67;8.25;;;;;;;;;;3337248;42;20093;-58
2022/08/06 02:52:58;;;;;;;14.48;7.97;;;;;;;;;;3336381;42;20144;-58
2022/08/06 02:55:26;;;;;;;14.23;7.67;;;;;;;;;;3324835;42;20092;-60
2022/08/06 02:57:54;;;;;;;14.60;7.95;;;;;;;;;;3341512;42;20579;-56
2022/08/06 03:00:21;;;;;;;16.85;7.85;;;;;;;;;;3335216;42;20571;-54
2022/08/06 03:02:47;;;;;;;12.20;7.82;;;;;;;;;;3322171;42;20692;-54
2022/08/06 03:05:15;;;;;;;12.77;7.45;;;;;;;;;;3329832;42;20193;-52
2022/08/06 03:07:41;;;;;;;11.57;7.50;;;;;;;;;;3334624;42;20084;-55
2022/08/06 03:10:08;;;;;;;13.30;7.75;;;;;;;;;;3323943;42;20480;-54
2022/08/06 03:12:35;;;;;;;13.88;7.63;;;;;;;;;;3331740;42;20089;-55
2022/08/06 03:15:02;;;;;;;12.50;7.22;;;;;;;;;;3332309;42;20100;-59
2022/08/06 03:17:28;;;;;;;13.68;7.28;;;;;;;;;;3329581;42;20599;-56
2022/08/06 03:19:54;;;;;;;19.07;7.63;;;;;;;;;;3331529;42;20096;-55
2022/08/06 03:22:20;;;;;;;19.92;7.43;;;;;;;;;;3344018;42;20093;-54
2022/08/06 03:24:46;;;;;;;23.80;7.97;;;;;;;;;;3335327;42;20601;-55
2022/08/06 03:27:12;;;;;;;18.58;7.53;;;;;;;;;;3326366;42;20093;-58
2022/08/06 03:29:40;;;;;;;14.85;7.13;;;;;;;;;;3326720;42;20517;-58
2022/08/06 03:32:07;;;;;;;14.43;6.93;;;;;;;;;;3324655;42;20195;-55
2022/08/06 03:34:33;;;;;;;12.05;6.78;;;;;;;;;;3337533;42;20101;-56
2022/08/06 03:36:59;;;;;;;14.25;7.38;;;;;;;;;;3328849;42;20575;-56
2022/08/06 03:39:25;;;;;;;10.02;6.75;;;;;;;;;;3327616;42;20406;-57
2022/08/06 03:41:51;;;;;;;9.77;6.70;;;;;;;;;;3336493;42;20172;-56
2022/08/06 03:44:17;;;;;;;13.27;6.70;;;;;;;;;;3327960;42;20566;-56
2022/08/06 03:47:03;;;;;;;11.68;6.72;;;;;;;;;;3324318;42;20356;-59
2022/08/06 03:49:43;;;;;;;12.80;7.15;;;;;;;;;;3332674;42;20104;-57
2022/08/06 03:52:12;;;;;;;13.70;6.78;;;;;;;;;;3329269;42;20164;-59
2022/08/06 03:54:42;;;;;;;16.88;6.80;;;;;;;;;;3337376;42;20510;-58
2022/08/06 03:57:14;;;;;;;12.47;6.50;;;;;;;;;;3330264;42;20192;-57
2022/08/06 03:59:42;;;;;;;14.63;7.00;;;;;;;;;;3335166;42;20108;-56
2022/08/06 04:02:08;;;;;;;12.93;7.18;;;;;;;;;;3317090;42;20101;-57
2022/08/06 04:04:34;;;;;;;13.02;7.03;;;;;;;;;;3328449;42;20136;-58
2022/08/06 04:07:00;;;;;;;12.57;7.00;;;;;;;;;;3323604;42;20113;-57
2022/08/06 04:09:26;;;;;;;12.83;6.80;;;;;;;;;;3332244;42;20525;-57
2022/08/06 04:11:53;;;;;;;11.13;6.50;;;;;;;;;;3324058;42;20489;-58
2022/08/06 04:14:19;;;;;;;12.68;6.13;;;;;;;;;;3331857;42;20169;-60
2022/08/06 04:16:45;;;;;;;9.23;5.50;;;;;;;;;;3329306;42;20100;-59
2022/08/06 04:19:11;;;;;;;8.43;5.25;;;;;;;;;;3323230;42;20636;-59
2022/08/06 04:21:37;;;;;;;9.67;5.33;;;;;;;;;;3337211;42;20088;-61
2022/08/06 04:24:03;;;;;;;10.43;5.28;;;;;;;;;;3320270;42;20104;-61
2022/08/06 04:26:30;;;;;;;11.95;5.20;;;;;;;;;;3327825;42;20153;-58
2022/08/06 04:28:56;;;;;;;10.80;5.07;;;;;;;;;;3340174;42;20088;-56
2022/08/06 04:31:22;;;;;;;11.90;5.85;;;;;;;;;;3321620;42;20161;-58
2022/08/06 04:33:49;;;;;;;8.03;5.10;;;;;;;;;;3343006;42;20129;-58
2022/08/06 04:36:15;;;;;;;13.18;5.25;;;;;;;;;;3331847;42;20101;-60
2022/08/06 04:38:41;;;;;;;10.68;5.00;;;;;;;;;;3334434;42;20093;-58
2022/08/06 04:41:07;;;;;;;9.75;5.10;;;;;;;;;;3327459;42;20104;-57
2022/08/06 04:43:34;;;;;;;12.43;5.07;;;;;;;;;;3339217;42;20093;-57
2022/08/06 04:46:00;;;;;;;10.50;4.97;;;;;;;;;;3328398;42;20599;-58
2022/08/06 04:48:26;;;;;;;12.98;5.47;;;;;;;;;;3330584;42;20549;-60
2022/08/06 04:50:52;;;;;;;13.63;6.50;;;;;;;;;;3332633;42;20179;-59
2022/08/06 04:53:18;;;;;;;10.23;6.07;;;;;;;;;;3322616;42;20145;-61
2022/08/06 04:55:45;;;;;;;13.38;6.40;;;;;;;;;;3337671;42;20116;-60
2022/08/06 04:58:12;;;;;;;13.30;6.47;;;;;;;;;;3335178;42;20101;-60
2022/08/06 05:00:40;;;;;;;12.93;6.70;;;;;;;;;;3335538;42;20119;-60
2022/08/06 05:03:06;;;;;;;13.82;6.30;;;;;;;;;;3339635;42;20100;-58
2022/08/06 05:05:42;;;;;;;12.93;6.18;;;;;;;;;;3333782;42;20674;-59
2022/08/06 05:08:08;;;;;;;11.35;6.05;;;;;;;;;;3328707;42;20156;-58
2022/08/06 05:10:51;;;;;;;12.50;5.50;;;;;;;;;;3335989;42;20137;-59
2022/08/06 05:13:17;;;;;;;12.98;5.20;;;;;;;;;;3319324;42;20097;-59
2022/08/06 05:15:44;;;;;;;9.32;5.10;;;;;;;;;;3325540;42;20622;-57
2022/08/06 05:18:22;;;;;;;11.40;5.43;;;;;;;;;;3329129;42;20688;-58
2022/08/06 05:20:49;;;;;;;11.77;5.32;;;;;;;;;;3336078;42;20164;-58
2022/08/06 05:23:20;;;;;;;12.40;5.40;;;;;;;;;;3333431;42;20188;-55
2022/08/06 05:25:47;;;;;;;9.38;5.47;;;;;;;;;;3335077;42;20164;-57
2022/08/06 05:28:13;;;;;;;9.70;5.20;;;;;;;;;;3333136;42;20101;-56
2022/08/06 05:30:46;;;;;;;10.48;5.30;;;;;;;;;;3331101;42;20115;-57
2022/08/06 05:33:22;;;;;;;9.13;5.20;;;;;;;;;;3339879;42;20647;-57
2022/08/06 05:35:48;;;;;;;9.90;4.70;;;;;;;;;;3339632;42;20112;-58
2022/08/06 05:38:14;;;;;;;14.43;5.55;;;;;;;;;;3339642;42;20123;-60
2022/08/06 05:40:40;;;;;;;15.90;5.43;;;;;;;;;;3339608;42;20096;-59
2022/08/06 05:43:06;;;;;;;9.30;5.20;;;;;;;;;;3333679;42;20111;-58
2022/08/06 05:45:32;;;;;;;12.43;5.88;;;;;;;;;;3335123;42;20088;-60
2022/08/06 05:47:59;;;;;;;13.13;7.03;;;;;;;;;;3327568;42;20147;-59
2022/08/06 05:50:28;;;;;;;14.70;6.88;;;;;;;;;;3321198;42;20152;-60
2022/08/06 05:52:57;;;;;;;15.15;6.85;;;;;;;;;;3339601;42;20554;-59
2022/08/06 05:55:31;;;;;;;13.57;6.88;;;;;;;;;;3321333;42;20096;-59
2022/08/06 05:58:01;;;;;;;12.38;6.57;;;;;;;;;;3317302;42;20144;-60
2022/08/06 06:00:31;;;;;;;15.27;6.90;;;;;;;;;;3332229;42;20527;-59
2022/08/06 06:02:58;;;;;;;12.13;7.30;;;;;;;;;;3327975;42;20092;-59
2022/08/06 06:05:24;;;;;;;13.52;7.38;;;;;;;;;;3325223;42;20136;-60
2022/08/06 06:07:52;;;;;;;13.75;6.03;;;;;;;;;;3324294;42;20092;-58
2022/08/06 06:10:18;;;;;;;12.65;6.40;;;;;;;;;;3331228;42;20571;-56
2022/08/06 06:12:44;;;;;;;12.20;6.03;;;;;;;;;;3339240;42;20105;-59
2022/08/06 06:15:12;;;;;;;11.00;5.75;;;;;;;;;;3323922;42;20204;-58
2022/08/06 06:17:48;;;;;;;11.77;5.85;;;;;;;;;;3330963;42;20088;-61
2022/08/06 06:20:20;;;;;;;9.48;4.95;;;;;;;;;;3331323;42;20191;-58
2022/08/06 06:22:49;;;;;;;11.40;6.07;;;;;;;;;;3333931;42;20112;-59
2022/08/06 06:25:21;;;;;;;13.57;6.03;;;;;;;;;;3333628;42;20144;-57
2022/08/06 06:28:00;;;;;;;11.55;5.50;;;;;;;;;;3334881;42;20186;-59
2022/08/06 06:30:49;;;;;;;12.75;6.13;;;;;;;;;;3337331;42;20290;-58
2022/08/06 06:33:36;;;;;;;10.27;6.13;;;;;;;;;;3336008;42;20092;-59
2022/08/06 06:36:05;;;;;;;12.48;6.18;;;;;;;;;;3328832;42;20104;-56
2022/08/06 06:39:02;;;;;;;15.23;6.60;;;;;;;;;;3323432;42;20183;-56
2022/08/06 06:41:34;;;;;;;13.63;6.60;;;;;;;;;;3340392;42;20095;-58
2022/08/06 06:44:07;;;;;;;12.95;6.50;;;;;;;;;;3337890;42;20080;-58
2022/08/06 06:46:46;;;;;;;15.93;6.22;;;;;;;;;;3326637;42;20556;-58
2022/08/06 06:49:36;;;;;;;12.45;6.10;;;;;;;;;;3334654;42;20140;-60
2022/08/06 06:52:08;;;;;;;13.07;5.73;;;;;;;;;;3327174;42;20093;-60
2022/08/06 06:55:01;;;;;;;9.95;5.80;;;;;;;;;;3330708;42;20084;-59
2022/08/06 06:57:32;;;;;;;8.68;5.28;;;;;;;;;;3334587;42;20503;-58
2022/08/06 07:00:01;;;;;;;10.38;5.88;;;;;;;;;;3319782;42;20136;-58
2022/08/06 07:02:31;;;;;;;9.63;4.90;;;;;;;;;;3327321;42;20566;-57
2022/08/06 07:04:57;;;;;;;8.70;4.87;;;;;;;;;;3328910;42;20587;-58
2022/08/06 07:07:23;;;;;;;9.05;3.60;;;;;;;;;;3331357;42;20112;-58
2022/08/06 07:09:50;;;;;;;9.32;3.25;;;;;;;;;;3324525;42;20511;-57
2022/08/06 07:12:18;;;;;;;7.78;3.20;;;;;;;;;;3331111;42;20335;-58
2022/08/06 07:14:44;;;;;;;9.10;3.00;;;;;;;;;;3329020;42;20535;-58
2022/08/06 07:17:10;;;;;;;8.03;3.20;;;;;;;;;;3335249;42;20552;-58
2022/08/06 07:19:37;;;;;;;9.57;3.13;;;;;;;;;;3330159;42;20109;-58
2022/08/06 07:22:03;;;;;;;7.78;3.05;;;;;;;;;;3323217;42;20546;-57
2022/08/06 07:24:30;;;;;;;6.57;2.83;;;;;;;;;;3328830;42;20103;-57
2022/08/06 07:26:57;;;;;;;8.10;3.20;;;;;;;;;;3342186;42;20126;-55
2022/08/06 07:29:23;;;;;;;7.67;2.80;;;;;;;;;;3327687;42;20180;-58
2022/08/06 07:31:49;;;;;;;5.88;3.00;;;;;;;;;;3338802;42;20100;-59
2022/08/06 07:34:15;;;;;;;11.98;2.92;;;;;;;;;;3324232;42;20144;-57
2022/08/06 07:36:52;;;;;;;7.25;2.85;;;;;;;;;;3324082;42;20578;-58
2022/08/06 07:39:24;;;;;;;7.55;3.22;;;;;;;;;;3332081;42;20107;-56
2022/08/06 07:41:51;;;;;;;6.77;2.40;;;;;;;;;;3324919;42;20236;-60
2022/08/06 07:44:18;;;;;;;7.65;3.08;;;;;;;;;;3319600;42;20530;-56
2022/08/06 07:46:48;;;;;;;8.43;3.15;;;;;;;;;;3320410;42;20176;-57
2022/08/06 07:49:14;;;;;;;5.95;2.70;;;;;;;;;;3339941;42;20112;-59
2022/08/06 07:51:40;;;;;;;7.15;2.80;;;;;;;;;;3329363;42;20105;-58
2022/08/06 07:54:07;;;;;;;6.33;2.90;;;;;;;;;;3333928;42;20089;-60
2022/08/06 07:56:34;;;;;;;6.50;2.88;;;;;;;;;;3328569;42;20562;-59
2022/08/06 07:59:00;;;;;;;6.57;2.40;;;;;;;;;;3327472;42;20092;-57
2022/08/06 08:01:26;;;;;;;6.43;2.13;;;;;;;;;;3333151;42;20140;-59
2022/08/06 08:06:37;;;;;;;8.17;3.33;;;;;;;;;;3333973;42;20131;-58
2022/08/06 08:09:08;;;;;;;6.30;2.80;;;;;;;;;;3323244;42;20111;-53
2022/08/06 08:11:40;;;;;;;7.07;2.90;;;;;;;;;;3328643;42;20156;-57
2022/08/06 08:14:08;;;;;;;6.47;3.13;;;;;;;;;;3327931;42;20073;-57
2022/08/06 08:16:34;;;;;;;7.10;2.95;;;;;;;;;;3339124;42;20128;-57
2022/08/06 08:19:00;;;;;;;6.60;3.00;;;;;;;;;;3336067;42;20108;-57
2022/08/06 08:21:26;;;;;;;6.63;2.90;;;;;;;;;;3339718;42;20224;-58
2022/08/06 08:23:52;;;;;;;7.47;2.97;;;;;;;;;;3336812;42;20154;-56
2022/08/06 08:26:18;;;;;;;8.15;2.88;;;;;;;;;;3325079;42;20160;-59
2022/08/06 08:28:44;;;;;;;5.90;2.63;;;;;;;;;;3332606;42;20124;-60
2022/08/06 08:31:13;;;;;;;9.30;3.20;;;;;;;;;;3334690;42;20111;-59
2022/08/06 08:33:39;;;;;;;6.50;2.55;;;;;;;;;;3340047;42;20580;-57
2022/08/06 08:36:06;;;;;;;4.90;2.50;;;;;;;;;;3334118;42;20096;-57
2022/08/06 08:38:33;;;;;;;7.05;2.45;;;;;;;;;;3335855;42;20107;-59
2022/08/06 08:41:02;;;;;;;5.80;2.20;;;;;;;;;;3331661;42;20542;-59
2022/08/06 08:43:43;;;;;;;5.10;2.10;;;;;;;;;;3335221;42;20511;-58
2022/08/06 08:46:09;;;;;;;4.82;2.05;;;;;;;;;;3320216;42;20291;-57
2022/08/06 08:48:35;;;;;;;5.68;1.77;;;;;;;;;;3328002;42;20128;-57
2022/08/06 08:51:01;;;;;;;5.93;1.95;;;;;;;;;;3331825;42;20109;-60
2022/08/06 08:53:44;;;;;;;4.80;2.08;;;;;;;;;;3318849;42;20097;-57
2022/08/06 08:56:11;;;;;;;4.93;2.03;;;;;;;;;;3336516;42;20103;-57
2022/08/06 08:58:38;;;;;;;6.88;2.15;;;;;;;;;;3333427;42;20695;-60
2022/08/06 09:01:08;;;;;;;7.05;2.20;;;;;;;;;;3340260;42;20111;-57
2022/08/06 09:03:36;;;;;;;5.00;2.13;;;;;;;;;;3334222;42;20219;-56
2022/08/06 09:06:03;;;;;;;5.32;2.03;;;;;;;;;;3328449;42;20469;-57
2022/08/06 09:08:30;;;;;;;8.40;2.30;;;;;;;;;;3337059;42;20551;-58
2022/08/06 09:10:56;;;;;;;7.40;2.10;;;;;;;;;;3327351;42;20093;-58
2022/08/06 09:13:26;;;;;;;5.25;2.00;;;;;;;;;;3338669;42;20578;-57
2022/08/06 09:15:52;;;;;;;6.78;2.22;;;;;;;;;;3334665;42;20081;-57
2022/08/06 09:18:19;;;;;;;6.40;2.10;;;;;;;;;;3337858;42;20660;-58
2022/08/06 09:20:45;;;;;;;5.20;2.10;;;;;;;;;;3332498;42;20175;-57
2022/08/06 09:23:15;;;;;;;7.38;2.05;;;;;;;;;;3333878;42;20168;-58
2022/08/06 09:25:46;;;;;;;6.63;2.45;;;;;;;;;;3343414;42;20104;-56
2022/08/06 09:28:31;;;;;;;6.68;2.50;;;;;;;;;;3332877;42;20562;-58
2022/08/06 09:31:07;;;;;;;4.63;1.85;;;;;;;;;;3334482;42;20147;-55
2022/08/06 09:33:36;;;;;;;6.10;2.40;;;;;;;;;;3330795;42;20097;-59
2022/08/06 09:36:10;;;;;;;5.22;2.00;;;;;;;;;;3332593;42;20147;-57
2022/08/06 09:38:52;;;;;;;5.40;2.20;;;;;;;;;;3328526;42;20156;-58
2022/08/06 09:41:20;;;;;;;5.93;2.35;;;;;;;;;;3332425;42;20081;-57
2022/08/06 09:43:48;;;;;;;5.35;2.20;;;;;;;;;;3335570;42;20096;-57
2022/08/06 09:46:14;;;;;;;7.47;2.07;;;;;;;;;;3338984;42;20112;-57
2022/08/06 09:48:56;;;;;;;5.40;1.90;;;;;;;;;;3345835;42;20103;-60
2022/08/06 09:51:22;;;;;;;11.80;3.15;;;;;;;;;;3335895;42;20157;-58
2022/08/06 09:53:57;;;;;;;5.47;2.30;;;;;;;;;;3338213;42;20574;-58
2022/08/06 09:56:24;;;;;;;5.15;2.05;;;;;;;;;;3327231;42;20140;-61
2022/08/06 09:58:50;;;;;;;5.80;2.63;;;;;;;;;;3335571;42;20104;-58
2022/08/06 10:01:21;;;;;;;5.70;2.40;;;;;;;;;;3333726;42;20085;-59
2022/08/06 10:03:48;;;;;;;5.57;2.28;;;;;;;;;;3334677;42;20108;-60
2022/08/06 10:06:16;;;;;;;6.25;2.20;;;;;;;;;;3325987;42;20160;-60
2022/08/06 10:08:43;;;;;;;5.00;2.20;;;;;;;;;;3334863;42;20092;-60
2022/08/06 10:11:09;;;;;;;5.10;2.00;;;;;;;;;;3333748;42;20165;-60
2022/08/06 10:13:36;;;;;;;5.55;2.03;;;;;;;;;;3335527;42;20591;-58
2022/08/06 10:16:15;;;;;;;5.40;2.15;;;;;;;;;;3330088;42;20111;-59
2022/08/06 10:18:43;;;;;;;5.13;2.30;;;;;;;;;;3341895;42;20204;-57
2022/08/06 10:21:13;;;;;;;6.00;2.28;;;;;;;;;;3338610;42;20121;-58
2022/08/06 10:23:40;;;;;;;5.53;2.07;;;;;;;;;;3342602;42;20111;-59
2022/08/06 10:26:09;;;;;;;6.18;2.00;;;;;;;;;;3338097;42;20578;-59
2022/08/06 10:28:35;;;;;;;6.15;2.15;;;;;;;;;;3342337;42;20092;-57
2022/08/06 10:31:10;;;;;;;5.78;2.30;;;;;;;;;;3329679;42;20097;-59
2022/08/06 10:33:50;;;;;;;5.38;2.20;;;;;;;;;;3338908;42;20089;-58
2022/08/06 10:36:19;;;;;;;7.00;2.00;;;;;;;;;;3332940;42;20100;-59
2022/08/06 10:38:46;;;;;;;5.95;2.28;;;;;;;;;;3331786;42;20171;-58
2022/08/06 10:41:13;;;;;;;4.90;2.20;;;;;;;;;;3321286;42;20602;-60
2022/08/06 10:43:39;;;;;;;5.43;2.10;;;;;;;;;;3337235;42;20093;-59
2022/08/06 10:46:12;;;;;;;5.50;2.30;;;;;;;;;;3335916;42;20108;-57
2022/08/06 10:48:39;;;;;;;5.77;2.60;;;;;;;;;;3338987;42;20124;-59
2022/08/06 10:51:06;;;;;;;5.65;2.42;;;;;;;;;;3327295;42;20096;-56
2022/08/06 10:53:38;;;;;;;5.63;2.22;;;;;;;;;;3336077;42;20178;-57
2022/08/06 10:56:05;;;;;;;5.55;2.47;;;;;;;;;;3330414;42;20614;-60
2022/08/06 10:58:32;;;;;;;6.63;2.40;;;;;;;;;;3329544;42;20128;-59
2022/08/06 11:01:04;;;;;;;5.90;2.33;;;;;;;;;;3333017;42;20195;-57
2022/08/06 11:03:39;;;;;;;7.43;2.30;;;;;;;;;;3337718;42;20089;-59
2022/08/06 11:06:41;;;;;;;6.57;2.50;;;;;;;;;;3330817;42;20160;-59
2022/08/06 11:09:07;;;;;;;9.85;2.67;;;;;;;;;;3331934;42;20096;-60
2022/08/06 11:12:09;;;;;;;6.75;2.30;;;;;;;;;;3331570;42;20096;-59
2022/08/06 11:14:36;;;;;;;8.50;3.00;;;;;;;;;;3333848;42;20092;-58
2022/08/06 11:17:02;;;;;;;5.45;2.47;;;;;;;;;;3325935;42;20097;-60
2022/08/06 11:19:45;;;;;;;6.97;2.25;;;;;;;;;;3336445;42;20131;-60
2022/08/06 11:22:40;;;;;;;7.30;2.53;;;;;;;;;;3330738;42;20716;-59
2022/08/06 11:25:08;;;;;;;6.03;2.67;;;;;;;;;;3331804;42;20710;-58
2022/08/06 11:27:50;;;;;;;5.50;2.40;;;;;;;;;;3335497;42;20166;-58
2022/08/06 11:30:17;;;;;;;5.47;2.50;;;;;;;;;;3326893;42;20097;-58
2022/08/06 11:32:51;;;;;;;6.05;2.63;;;;;;;;;;3341386;42;20136;-59
2022/08/06 11:35:35;;;;;;;5.80;2.28;;;;;;;;;;3335954;42;20174;-58
2022/08/06 11:38:02;;;;;;;5.70;2.50;;;;;;;;;;3337193;42;20107;-59
2022/08/06 11:40:28;;;;;;;5.40;2.40;;;;;;;;;;3330166;42;20184;-60
2022/08/06 11:42:54;;;;;;;8.98;2.90;;;;;;;;;;3334018;42;20108;-59
2022/08/06 11:45:20;;;;;;;5.57;2.67;;;;;;;;;;3325681;42;20149;-57
2022/08/06 11:48:06;;;;;;;6.95;2.50;;;;;;;;;;3329976;42;20109;-58
2022/08/06 11:50:32;;;;;;;5.97;2.30;;;;;;;;;;3332431;42;20111;-59
2022/08/06 11:52:58;;;;;;;6.60;2.63;;;;;;;;;;3337312;42;20119;-57
2022/08/06 11:55:24;;;;;;;7.13;2.58;;;;;;;;;;3335860;42;20607;-57
2022/08/06 11:58:14;;;;;;;5.38;2.53;;;;;;;;;;3335067;42;20129;-59
2022/08/06 12:00:56;;;;;;;6.32;2.70;;;;;;;;;;3337444;42;20654;-59
2022/08/06 12:03:38;;;;;;;7.05;2.70;;;;;;;;;;3330295;42;20688;-60
2022/08/06 12:06:23;;;;;;;7.50;2.87;;;;;;;;;;3322880;42;20097;-61
2022/08/06 12:09:12;;;;;;;6.78;2.75;;;;;;;;;;3337837;42;20161;-59
2022/08/06 12:11:38;;;;;;;6.60;2.67;;;;;;;;;;3339973;42;20195;-58
2022/08/06 12:14:04;;;;;;;5.68;2.60;;;;;;;;;;3334498;42;20199;-59
2022/08/06 12:16:35;;;;;;;7.75;2.80;;;;;;;;;;3330791;42;20081;-59
2022/08/06 12:19:06;;;;;;;6.43;2.80;;;;;;;;;;3330272;42;20089;-58
2022/08/06 12:21:32;;;;;;;8.18;2.53;;;;;;;;;;3335282;42;20540;-58
2022/08/06 12:23:58;;;;;;;6.38;2.60;;;;;;;;;;3334574;42;20584;-58
2022/08/06 12:26:24;;;;;;;7.57;2.85;;;;;;;;;;3336164;42;20092;-57
2022/08/06 12:28:50;;;;;;;8.02;2.72;;;;;;;;;;3332801;42;20097;-60
2022/08/06 12:31:29;;;;;;;6.03;2.70;;;;;;;;;;3340118;42;20103;-59
2022/08/06 12:33:55;;;;;;;6.25;2.63;;;;;;;;;;3339580;42;20092;-60
2022/08/06 12:36:25;;;;;;;6.65;2.88;;;;;;;;;;3334552;42;20195;-61
2022/08/06 12:38:55;;;;;;;6.70;2.80;;;;;;;;;;3341921;42;20185;-59
2022/08/06 12:41:21;;;;;;;6.15;2.65;;;;;;;;;;3338518;42;20092;-58
2022/08/06 12:43:47;;;;;;;7.27;2.60;;;;;;;;;;3334154;42;20111;-59
2022/08/06 12:46:15;;;;;;;5.88;2.67;;;;;;;;;;3342169;42;20630;-58
2022/08/06 12:48:46;;;;;;;6.15;2.88;;;;;;;;;;3337413;42;20136;-59
2022/08/06 12:51:13;;;;;;;7.15;2.65;;;;;;;;;;3337434;42;20612;-58
2022/08/06 12:53:50;;;;;;;5.97;2.60;;;;;;;;;;3336138;42;20108;-59
2022/08/06 12:56:17;;;;;;;5.53;2.60;;;;;;;;;;3327700;42;20093;-60
2022/08/06 12:58:43;;;;;;;14.00;3.53;;;;;;;;;;3335109;42;20643;-59
2022/08/06 13:01:14;;;;;;;7.22;2.78;;;;;;;;;;3334619;42;20099;-58
2022/08/06 13:03:42;;;;;;;6.15;2.80;;;;;;;;;;3326625;42;20170;-59
2022/08/06 13:06:08;;;;;;;6.43;2.60;;;;;;;;;;3336983;42;20575;-59
2022/08/06 13:08:35;;;;;;;7.10;2.70;;;;;;;;;;3325450;42;20203;-60
2022/08/06 13:11:01;;;;;;;7.10;2.97;;;;;;;;;;3331110;42;20205;-59
2022/08/06 13:13:41;;;;;;;6.65;2.70;;;;;;;;;;3335651;42;20211;-57
2022/08/06 13:16:11;;;;;;;8.48;3.20;;;;;;;;;;3338779;42;20096;-57
2022/08/06 13:18:41;;;;;;;6.47;2.93;;;;;;;;;;3333082;42;20097;-57
2022/08/06 13:21:18;;;;;;;6.78;3.35;;;;;;;;;;3343707;42;20152;-58
2022/08/06 13:23:47;;;;;;;7.45;3.42;;;;;;;;;;3334295;42;20145;-58
2022/08/06 13:26:15;;;;;;;6.75;3.00;;;;;;;;;;3337288;42;20108;-59
2022/08/06 13:29:04;;;;;;;7.88;3.22;;;;;;;;;;3338347;42;20128;-60
2022/08/06 13:31:30;;;;;;;7.47;2.80;;;;;;;;;;3334838;42;20116;-58
2022/08/06 13:34:04;;;;;;;6.78;3.00;;;;;;;;;;3330791;42;20124;-57
2022/08/06 13:36:30;;;;;;;7.78;3.00;;;;;;;;;;3334635;42;20597;-58
2022/08/06 13:38:57;;;;;;;5.75;2.65;;;;;;;;;;3338247;42;20115;-60
2022/08/06 13:41:29;;;;;;;9.70;3.30;;;;;;;;;;3328454;42;20108;-59
2022/08/06 13:43:55;;;;;;;7.07;2.93;;;;;;;;;;3332946;42;20081;-59
2022/08/06 13:46:25;;;;;;;8.45;3.17;;;;;;;;;;3331228;42;20112;-58
2022/08/06 13:48:52;;;;;;;8.38;3.08;;;;;;;;;;3338488;42;20515;-61
2022/08/06 13:51:19;;;;;;;6.80;3.00;;;;;;;;;;3334616;42;20179;-58
2022/08/06 13:53:45;;;;;;;6.25;3.00;;;;;;;;;;3333456;42;20135;-59
2022/08/06 13:56:13;;;;;;;7.70;3.00;;;;;;;;;;3334269;42;20161;-59
2022/08/06 13:58:39;;;;;;;7.30;3.10;;;;;;;;;;3338199;42;20160;-59
2022/08/06 14:01:05;;;;;;;6.30;3.10;;;;;;;;;;3345333;42;20104;-60
2022/08/06 14:03:32;;;;;;;5.80;3.00;;;;;;;;;;3335632;42;20650;-58
2022/08/06 14:05:58;;;;;;;10.10;3.78;;;;;;;;;;3331029;42;20563;-58
2022/08/06 14:08:24;;;;;;;11.20;3.10;;;;;;;;;;3338405;42;20484;-59
2022/08/06 14:10:50;;;;;;;5.90;3.10;;;;;;;;;;3342492;42;20536;-57
2022/08/06 14:13:16;;;;;;;9.30;3.22;;;;;;;;;;3336175;42;20541;-57
2022/08/06 14:15:47;;;;;;;6.05;3.17;;;;;;;;;;3335501;42;20559;-60
2022/08/06 14:18:14;;;;;;;6.80;3.15;;;;;;;;;;3339057;42;20096;-61
2022/08/06 14:20:40;;;;;;;7.80;3.40;;;;;;;;;;3330610;42;20156;-59
2022/08/06 14:23:06;;;;;;;6.60;3.42;;;;;;;;;;3339074;42;20097;-57
2022/08/06 14:25:33;;;;;;;8.63;3.92;;;;;;;;;;3333654;42;20105;-60
2022/08/06 14:27:59;;;;;;;10.27;4.45;;;;;;;;;;3331148;42;20172;-58
2022/08/06 14:30:25;;;;;;;7.47;3.70;;;;;;;;;;3333421;42;20103;-59
2022/08/06 14:32:51;;;;;;;8.53;4.00;;;;;;;;;;3343328;42;20097;-58
2022/08/06 14:35:17;;;;;;;10.00;4.10;;;;;;;;;;3338025;42;20097;-58
2022/08/06 14:37:44;;;;;;;9.73;4.35;;;;;;;;;;3335863;42;20180;-59
2022/08/06 14:40:13;;;;;;;7.40;4.32;;;;;;;;;;3337792;42;20165;-59
2022/08/06 14:45:24;;;;;;;8.00;4.70;;;;;;;;;;3342784;42;20097;-58
2022/08/06 14:47:50;;;;;;;8.88;3.90;;;;;;;;;;3333279;42;20119;-59
2022/08/06 14:50:17;;;;;;;8.55;4.00;;;;;;;;;;3332230;42;20512;-60
2022/08/06 14:52:44;;;;;;;8.32;3.80;;;;;;;;;;3336821;42;20171;-59
2022/08/06 14:55:10;;;;;;;7.47;3.78;;;;;;;;;;3337741;42;20128;-58
2022/08/06 14:57:37;;;;;;;9.37;3.57;;;;;;;;;;3338183;42;20151;-60